Latest Coastal Weather Observations for Tewantin

IDQ60701

Issued at 10:32 pm EST Wednesday 1 February 2023 (issued every 10 minutes, with the page automatically refreshed every 10 minutes)

About coastal observations | Map of coastal stations | Coastal observations for QLD | Marine services | Other Formats
Station Details ID: 040908 Name: TEWANTIN RSL PARK Lat: -26.39 Lon: 153.04 Height: 6.4 m
Data from the previous 72 hours. | See also: Recent months at Tewantin
Date/Time
EST
Wind Sea
Height
m
Swell Vis
km
Cloud Weather Temp
°C
Press
MSL
hPa
Rain since
9am
mm
Dir  Spd
kts
Gust
kts
Height
m
Period
s
Dir
01/10:30pm S 3 5 - - - - - - - 26.1 1001.9 7.0
01/10:00pm SSW 3 5 - - - - - - - 26.2 1001.5 7.0
01/09:30pm S 1 4 - - - - - - - 26.3 1001.5 7.0
01/09:00pm SW 3 4 - - - - - - - 26.4 1001.6 7.0
01/08:30pm WNW 1 3 - - - - - - - 26.3 1001.5 7.0
01/08:00pm NNW 1 4 - - - - - - - 26.6 1001.4 7.0
01/07:30pm NW 4 6 - - - - - - - 27.0 1001.2 7.0
01/07:00pm NW 2 4 - - - - - - - 27.6 1000.7 7.0
01/06:30pm NNW 2 5 - - - - - - - 27.9 1000.3 7.0
01/06:00pm NNW 4 6 - - - - - - - 28.2 999.5 7.0
01/05:30pm NNE 3 6 - - - - - - - 28.2 999.2 7.0
01/05:00pm NNE 4 6 - - - - - - - 28.6 998.9 7.0
01/04:30pm NE 3 5 - - - - - - - 28.6 999.2 7.0
01/04:00pm NNE 7 10 - - - - - - - 28.8 999.5 7.0
01/03:30pm NNE 6 9 - - - - - - - 28.1 999.1 7.0
01/03:00pm NNE 7 10 - - - - - - - 28.1 999.3 7.0
01/02:30pm NNE 9 15 - - - - - - - 28.1 999.0 7.0
01/02:00pm NE 6 11 - - - - - - - 28.9 999.6 7.0
01/01:30pm NE 7 11 - - - - - - - 29.1 1000.4 7.0
01/01:00pm ENE 5 8 - - - - - - - 27.4 1001.0 6.8
01/12:30pm E 6 9 - - - - - - - 28.9 1001.1 1.0
01/12:00pm NE 5 8 - - - - - - - 31.4 1001.1 0.0
01/11:30am NW 3 7 - - - - - - - 30.6 1001.5 0.0
01/11:00am W 3 6 - - - - - - - 30.8 1001.7 0.0
01/10:30am WNW 3 8 - - - - - - - 29.9 1002.1 0.0
01/10:00am WNW 2 6 - - - - - - - 29.5 1002.2 0.0
01/09:30am W 3 7 - - - - - - - 29.8 1002.2 0.0
01/09:00am WNW 4 7 - - - - - - - 28.5 1002.4 0.6
01/08:30am NW 5 10 - - - - - - - 28.5 1002.5 0.6
01/08:00am NW 6 9 - - - - - - - 27.0 1002.5 0.6
01/07:30am NW 5 10 - - - - - - - 26.4 1002.4 0.6
01/07:00am NNW 6 10 - - - - - - - 25.9 1002.3 0.6
01/06:30am NNW 5 7 - - - - - - - 25.7 1002.3 0.6
01/06:00am N 5 7 - - - - - - - 25.6 1002.1 0.6
01/05:30am N 4 5 - - - - - - - 25.3 1002.0 0.6
01/05:00am NNW 3 6 - - - - - - - 25.3 1001.8 0.6
01/04:30am NNW 5 8 - - - - - - - 25.3 1001.5 0.6
01/04:00am NW 3 7 - - - - - - - 25.3 1001.3 0.6
01/03:30am NW 5 8 - - - - - - - 25.3 1001.1 0.6
01/03:00am N 7 9 - - - - - - - 25.2 1001.1 0.6
01/02:30am N 5 8 - - - - - - - 25.3 1001.2 0.6
01/02:00am NNW 5 7 - - - - - - - 25.3 1001.4 0.6
01/01:30am NW 4 7 - - - - - - - 25.3 1001.5 0.6
01/01:00am NNW 5 7 - - - - - - - 25.5 1001.9 0.6
01/12:30am NNW 5 10 - - - - - - - 25.4 1002.2 0.6
01/12:00am NW 3 7 - - - - - - Rain 25.1 1002.7 0.6
 
Date/Time
EST
Wind Sea
Height
m
Swell Vis
km
Cloud Weather Temp
°C
Press
MSL
hPa
Rain since
9am
mm
Dir  Spd
kts
Gust
kts
Height
m
Period
s
Dir
31/11:30pm NW 6 9 - - - - - - - 25.5 1003.1 0.2
31/11:00pm NW 7 13 - - - - - - - 26.6 1003.2 0.0
31/10:30pm NNW 6 9 - - - - - - - 26.5 1003.2 0.0
31/10:00pm NW 6 10 - - - - - - - 26.6 1003.5 0.0
31/09:30pm NNW 9 14 - - - - - - - 27.1 1003.3 0.0
31/09:00pm NNW 8 13 - - - - - - - 27.2 1003.3 0.0
31/08:30pm NW 9 13 - - - - - - - 27.3 1003.1 0.0
31/08:00pm NNW 10 16 - - - - - - - 27.4 1002.6 0.0
31/07:30pm NNW 12 19 - - - - - - - 27.5 1002.3 0.0
31/07:00pm NNW 11 19 - - - - - - - 27.7 1002.1 0.0
31/06:30pm N 11 18 - - - - - - - 28.1 1001.8 0.0
31/06:00pm N 13 19 - - - - - - - 28.4 1001.3 0.0
31/05:30pm N 13 21 - - - - - - - 29.3 1000.7 0.0
31/05:00pm NNE 9 14 - - - - - - - 30.3 1000.4 0.0
31/04:30pm NNE 12 20 - - - - - - - 30.2 1000.2 0.0
31/04:00pm NNE 12 17 - - - - - - - 30.2 1000.3 0.0
31/03:30pm NNE 12 19 - - - - - - - 30.5 1000.6 0.0
31/03:00pm NNE 12 19 - - - - - - - 30.5 1000.9 0.0
31/02:30pm NE 8 15 - - - - - - - 31.7 1001.2 0.0
31/02:00pm NW 7 11 - - - - - - - 33.2 1001.6 0.0
31/01:30pm NW 7 12 - - - - - - - 33.8 1002.2 0.0
31/01:00pm WNW 7 11 - - - - - - - 33.0 1002.8 0.0
31/12:30pm N 8 14 - - - - - - - 32.2 1003.4 0.0
31/12:00pm NW 5 10 - - - - - - - 32.1 1004.1 0.0
31/11:30am NW 6 10 - - - - - - - 31.5 1004.5 0.0
31/11:00am NW 7 12 - - - - - - - 31.0 1005.1 0.0
31/10:30am NNW 8 13 - - - - - - - 31.3 1005.5 0.0
31/10:00am NW 9 15 - - - - - - - 29.0 1005.8 0.0
31/09:30am NNW 9 13 - - - - - - - 28.9 1006.4 0.0
31/09:00am NW 10 16 - - - - - - Rain 28.6 1006.7 1.2
31/08:30am NW 7 12 - - - - - - - 27.1 1007.1 1.0
31/08:00am NNW 6 10 - - - - - - - 26.0 1007.2 1.0
31/07:30am NNW 5 9 - - - - - - - 24.9 1007.1 1.0
31/07:00am N 5 6 - - - - - - - 24.0 1007.3 1.0
31/06:30am NNW 4 6 - - - - - - - 23.7 1007.2 1.0
31/06:00am WNW 3 5 - - - - - - - 23.3 1006.9 1.0
31/05:30am NW 4 6 - - - - - - - 23.1 1006.6 1.0
31/05:00am NNW 3 4 - - - - - - - 23.0 1006.3 1.0
31/04:30am NW 3 4 - - - - - - - 22.9 1006.2 1.0
31/04:00am WNW 3 5 - - - - - - - 23.3 1006.3 1.0
31/03:30am N 3 5 - - - - - - - 23.3 1006.1 1.0
31/03:00am NE 2 4 - - - - - - Recent precip. 23.4 1006.5 1.0
31/02:30am NNW 2 4 - - - - - - - 23.7 1007.1 0.4
31/02:00am NNW 2 4 - - - - - - - 23.8 1007.4 0.4
31/01:30am WNW 2 4 - - - - - - - 24.2 1007.9 0.0
31/01:00am NNW 3 4 - - - - - - - 24.2 1008.0 0.0
31/12:30am NW 1 3 - - - - - - - 24.4 1008.4 0.0
31/12:00am NNW 3 4 - - - - - - - 24.7 1008.7 0.0
 
Date/Time
EST
Wind Sea
Height
m
Swell Vis
km
Cloud Weather Temp
°C
Press
MSL
hPa
Rain since
9am
mm
Dir  Spd
kts
Gust
kts
Height
m
Period
s
Dir
30/11:30pm NNW 4 5 - - - - - - - 24.7 1009.1 0.0
30/11:00pm NW 1 4 - - - - - - - 25.0 1009.7 0.0
30/10:30pm NNW 4 7 - - - - - - - 25.6 1009.9 0.0
30/10:00pm N 6 8 - - - - - - - 25.6 1009.9 0.0
30/09:30pm N 5 8 - - - - - - - 25.5 1009.8 0.0
30/09:00pm N 6 8 - - - - - - - 25.7 1009.7 0.0
30/08:30pm N 7 11 - - - - - - - 26.0 1009.6 0.0
30/08:00pm N 7 10 - - - - - - - 26.2 1009.7 0.0
30/07:30pm N 7 9 - - - - - - - 26.3 1009.4 0.0
30/07:00pm N 7 12 - - - - - - - 26.5 1009.2 0.0
30/06:30pm NNE 7 13 - - - - - - - 26.7 1009.0 0.0
30/06:00pm NNE 9 15 - - - - - - - 27.5 1008.8 0.0
30/05:30pm NNE 7 11 - - - - - - - 27.7 1008.8 0.0
30/05:00pm NNE 8 12 - - - - - - - 28.0 1008.6 0.0
30/04:30pm NNE 9 14 - - - - - - - 28.3 1008.3 0.0
30/04:00pm NNE 10 15 - - - - - - - 28.5 1008.4 0.0
30/03:30pm NE 9 16 - - - - - - - 28.6 1008.6 0.0
30/03:00pm NE 9 14 - - - - - - - 29.1 1009.0 0.0
30/02:30pm NE 10 17 - - - - - - - 29.7 1009.6 0.0
30/02:00pm NNE 10 15 - - - - - - - 29.4 1009.9 0.0
30/01:30pm NNE 9 15 - - - - - - - 30.0 1010.4 0.0
30/01:00pm NE 8 13 - - - - - - - 30.5 1010.6 0.0
30/12:30pm NNE 8 13 - - - - - - - 30.3 1010.9 0.0
30/12:00pm NE 9 14 - - - - - - - 29.9 1011.2 0.0
30/11:30am NE 9 14 - - - - - - - 30.1 1011.6 0.0
30/11:00am NE 7 13 - - - - - - - 30.4 1011.9 0.0
30/10:30am NE 5 9 - - - - - - - 30.3 1012.2 0.0
30/10:00am N 4 7 - - - - - - - 30.7 1012.6 0.0
30/09:30am NW 4 7 - - - - - - - 29.0 1012.7 0.0
30/09:00am NW 4 7 - - - - - - - 29.0 1013.1 0.0
30/08:30am WNW 4 7 - - - - - - - 28.3 1013.1 0.0
30/08:00am WNW 2 6 - - - - - - - 28.2 1013.5 0.0
30/07:30am WNW 4 6 - - - - - - - 26.8 1013.5 0.0
30/07:00am NW 2 5 - - - - - - - 25.8 1013.3 0.0
30/06:30am NW 1 3 - - - - - - - 23.9 1013.2 0.0
30/06:00am CALM 0 0 - - - - - - - 22.5 1012.7 0.0
30/05:30am CALM 0 0 - - - - - - - 22.0 1012.4 0.0
30/05:00am CALM 0 0 - - - - - - - 22.3 1012.0 0.0
30/04:30am CALM 0 0 - - - - - - - 22.6 1011.7 0.0
30/04:00am W 1 3 - - - - - - - 22.7 1011.8 0.0
30/03:30am CALM 0 0 - - - - - - - 22.8 1011.8 0.0
30/03:00am WNW 2 3 - - - - - - - 23.0 1011.9 0.0
30/02:30am WNW 2 4 - - - - - - - 23.2 1012.1 0.0
30/02:00am CALM 0 3 - - - - - - - 23.5 1012.4 0.0
30/01:30am CALM 0 0 - - - - - - - 23.4 1012.6 0.0
30/01:00am CALM 0 2 - - - - - - - 23.6 1012.9 0.0
30/12:30am NW 2 3 - - - - - - - 23.7 1013.0 0.0
30/12:00am CALM 0 3 - - - - - - - 23.9 1013.4 0.0
 
Date/Time
EST
Wind Sea
Height
m
Swell Vis
km
Cloud Weather Temp
°C
Press
MSL
hPa
Rain since
9am
mm
Dir  Spd
kts
Gust
kts
Height
m
Period
s
Dir
29/11:30pm W 3 5 - - - - - - - 24.3 1013.8 0.0
29/11:00pm W 1 4 - - - - - - - 24.6 1013.9 0.0

Other formats

Comma delimited format used in spreadsheet applications
http://www.bom.gov.au/fwo/IDQ60701/IDQ60701.94570.axf

JavaScript Object Notation format (JSON) in row-major order
http://www.bom.gov.au/fwo/IDQ60701/IDQ60701.94570.json

Data quality

Most of these data are generated automatically and are frequently updated. Quality checks on data are not normally performed. It is possible for incorrect values to appear. Refer to information at About Latest Weather Observations and please check the disclaimer before using these data.